createdAt,value
2022-08-22T00:03:39.399Z,2.33
2022-08-22T00:08:50.310Z,2.70
2022-08-22T00:14:02.181Z,2.50
2022-08-22T00:19:30.118Z,2.10
2022-08-22T00:24:33.252Z,2.65
2022-08-22T00:29:48.437Z,2.55
2022-08-22T00:35:06.372Z,2.53
2022-08-22T00:40:18.722Z,2.80
2022-08-22T00:45:34.667Z,2.85
2022-08-22T00:51:14.681Z,2.92
2022-08-22T00:56:42.599Z,2.60
2022-08-22T01:01:53.379Z,3.00
2022-08-22T01:07:37.853Z,3.40
2022-08-22T01:18:30.248Z,3.10
2022-08-22T01:23:48.180Z,2.83
2022-08-22T01:29:33.375Z,2.63
2022-08-22T01:34:54.746Z,3.00
2022-08-22T01:40:36.445Z,3.05
2022-08-22T01:46:24.844Z,2.47
2022-08-22T01:51:51.032Z,2.85
2022-08-22T01:57:01.983Z,2.70
2022-08-22T02:02:32.973Z,2.97
2022-08-22T02:07:49.363Z,3.97
2022-08-22T02:13:10.391Z,3.10
2022-08-22T02:18:23.915Z,3.30
2022-08-22T02:23:49.554Z,2.95
2022-08-22T02:29:15.594Z,3.00
2022-08-22T02:34:42.013Z,3.00
2022-08-22T02:40:07.887Z,3.22
2022-08-22T02:45:23.669Z,3.08
2022-08-22T02:50:48.315Z,3.30
2022-08-22T02:55:59.902Z,3.00
2022-08-22T03:01:24.505Z,2.63
2022-08-22T03:12:45.676Z,3.33
2022-08-22T03:17:56.344Z,2.80
2022-08-22T03:23:08.175Z,3.30
2022-08-22T03:28:16.859Z,7.50
2022-08-22T03:33:22.398Z,3.58
2022-08-22T03:38:45.497Z,3.83
2022-08-22T03:44:16.456Z,3.25
2022-08-22T03:49:34.182Z,3.17
2022-08-22T03:55:06.230Z,3.10
2022-08-22T04:00:32.722Z,4.07
2022-08-22T04:05:38.826Z,3.03
2022-08-22T04:11:02.595Z,3.17
2022-08-22T04:16:42.487Z,3.10
2022-08-22T04:22:22.978Z,3.13
2022-08-22T04:27:38.603Z,2.88
2022-08-22T04:32:48.274Z,3.17
2022-08-22T04:38:09.290Z,3.17
2022-08-22T04:43:59.766Z,3.20
2022-08-22T04:49:13.406Z,3.03
2022-08-22T04:54:54.280Z,3.30
2022-08-22T05:00:17.383Z,3.83
2022-08-22T05:05:26.833Z,3.33
2022-08-22T05:10:41.418Z,3.20
2022-08-22T05:15:49.828Z,3.80
2022-08-22T05:20:54.849Z,3.13
2022-08-22T05:26:03.347Z,3.47
2022-08-22T05:31:24.808Z,3.03
2022-08-22T05:36:31.428Z,3.08
2022-08-22T05:41:38.774Z,3.33
2022-08-22T05:46:44.972Z,3.40
2022-08-22T05:52:10.836Z,3.13
2022-08-22T05:57:38.137Z,4.15
2022-08-22T06:02:59.846Z,3.58
2022-08-22T06:08:15.553Z,3.00
2022-08-22T06:13:35.904Z,2.78
2022-08-22T06:18:42.439Z,2.85
2022-08-22T06:23:57.660Z,2.80
2022-08-22T06:29:02.631Z,3.15
2022-08-22T06:34:12.088Z,2.60
2022-08-22T06:39:30.975Z,2.45
2022-08-22T06:44:38.945Z,2.30
2022-08-22T06:49:46.653Z,2.45
2022-08-22T06:54:58.138Z,2.58
2022-08-22T07:00:10.653Z,3.30
2022-08-22T07:05:19.063Z,2.38
2022-08-22T07:10:23.951Z,2.45
2022-08-22T07:15:36.223Z,2.35
2022-08-22T07:20:46.788Z,2.25
2022-08-22T07:26:11.912Z,1.80
2022-08-22T07:31:45.431Z,2.10
2022-08-22T07:37:04.280Z,1.80
2022-08-22T07:42:19.723Z,1.75
2022-08-22T07:47:26.118Z,1.70
2022-08-22T07:52:37.415Z,1.70
2022-08-22T07:57:44.115Z,1.42
2022-08-22T08:02:51.718Z,1.30
2022-08-22T08:07:57.379Z,1.38
2022-08-22T08:13:05.611Z,1.50
2022-08-22T08:18:20.066Z,1.30
2022-08-22T08:23:25.858Z,1.20
2022-08-22T08:28:35.367Z,1.23
2022-08-22T08:33:42.050Z,1.50
2022-08-22T08:38:54.141Z,1.40
2022-08-22T08:44:17.992Z,1.40
2022-08-22T08:49:42.789Z,1.42
2022-08-22T09:09:13.687Z,1.60
2022-08-22T09:19:27.995Z,1.30
2022-08-22T09:24:48.101Z,1.52
2022-08-22T09:30:08.740Z,1.40
2022-08-22T09:35:33.389Z,1.50
2022-08-22T09:40:46.269Z,1.50
2022-08-22T09:46:02.398Z,1.95
2022-08-22T09:51:31.456Z,1.73
2022-08-22T09:57:02.533Z,1.73
2022-08-22T10:02:55.303Z,2.20
2022-08-22T10:08:26.311Z,2.00
2022-08-22T10:14:00.707Z,1.80
2022-08-22T10:19:38.554Z,1.95
2022-08-22T10:24:51.881Z,2.00
2022-08-22T10:30:16.362Z,1.70
2022-08-22T10:35:44.225Z,2.00
2022-08-22T10:40:52.947Z,1.70
2022-08-22T10:46:04.637Z,1.60
2022-08-22T10:51:19.533Z,2.20
2022-08-22T10:56:43.822Z,2.00
2022-08-22T11:02:02.695Z,1.65
2022-08-22T11:07:39.408Z,2.10
2022-08-22T11:13:09.823Z,1.92
2022-08-22T11:18:34.579Z,1.90
2022-08-22T11:23:45.511Z,1.80
2022-08-22T11:29:02.759Z,1.80
2022-08-22T11:34:31.981Z,1.67
2022-08-22T11:39:47.959Z,1.50
2022-08-22T11:44:59.294Z,1.85
2022-08-22T11:50:42.202Z,1.70
2022-08-22T11:56:12.807Z,1.73
2022-08-22T12:01:20.900Z,1.52
2022-08-22T12:06:56.362Z,1.60
2022-08-22T12:12:18.146Z,1.90
2022-08-22T12:18:01.363Z,1.63
2022-08-22T12:23:40.793Z,1.80
2022-08-22T12:29:15.572Z,1.92
2022-08-22T12:34:30.375Z,1.60
2022-08-22T12:44:59.140Z,4.55
2022-08-22T12:50:25.964Z,1.90
2022-08-22T12:55:46.646Z,1.55
2022-08-22T13:00:50.985Z,1.48
2022-08-22T13:06:00.495Z,1.70
2022-08-22T13:11:12.452Z,1.92
2022-08-22T13:16:35.435Z,1.55
2022-08-22T13:21:48.369Z,1.60
2022-08-22T13:27:01.586Z,1.90
2022-08-22T13:32:05.377Z,2.00
2022-08-22T13:37:15.716Z,2.13
2022-08-22T13:42:30.462Z,1.65
2022-08-22T13:47:39.487Z,1.90
2022-08-22T13:53:07.403Z,1.88
2022-08-22T13:58:45.005Z,1.90
2022-08-22T14:03:55.418Z,1.70
2022-08-22T14:09:08.595Z,1.70
2022-08-22T14:14:11.904Z,1.67
2022-08-22T14:19:32.303Z,2.17
2022-08-22T14:25:21.309Z,1.65
2022-08-22T14:30:29.215Z,1.58
2022-08-22T14:35:38.177Z,2.33
2022-08-22T14:40:43.097Z,1.80
2022-08-22T14:45:55.010Z,2.08
2022-08-22T14:51:03.883Z,1.80
2022-08-22T14:56:11.268Z,1.83
2022-08-22T15:01:17.886Z,1.92
2022-08-22T15:06:37.063Z,1.80
2022-08-22T15:11:42.286Z,1.77
2022-08-22T15:17:08.205Z,1.83
2022-08-22T15:22:25.915Z,1.98
2022-08-22T15:27:33.789Z,2.10
2022-08-22T15:32:42.958Z,2.63
2022-08-22T15:38:11.254Z,2.00
2022-08-22T15:43:28.828Z,2.40
2022-08-22T15:48:41.018Z,1.92
2022-08-22T15:53:44.093Z,2.40
2022-08-22T15:59:27.190Z,1.95
2022-08-22T16:04:50.373Z,2.17
2022-08-22T16:09:57.860Z,2.00
2022-08-22T16:15:06.020Z,1.80
2022-08-22T16:25:17.062Z,1.70
2022-08-22T16:30:33.598Z,1.60
2022-08-22T16:36:14.252Z,1.77
2022-08-22T16:41:44.510Z,1.35
2022-08-22T16:46:49.607Z,1.55
2022-08-22T16:52:27.380Z,1.50
2022-08-22T16:58:06.009Z,2.10
2022-08-22T17:03:19.411Z,1.40
2022-08-22T17:08:25.985Z,1.33
2022-08-22T17:13:48.754Z,1.25
2022-08-22T17:19:01.898Z,1.40
2022-08-22T17:24:33.714Z,1.30
2022-08-22T17:29:58.086Z,1.23
2022-08-22T17:35:17.332Z,1.55
2022-08-22T17:40:37.703Z,1.73
2022-08-22T17:45:55.233Z,1.45
2022-08-22T17:51:03.954Z,1.60
2022-08-22T17:56:25.783Z,1.50
2022-08-22T18:01:43.695Z,1.50
2022-08-22T18:06:59.769Z,1.60
2022-08-22T18:12:27.138Z,1.58
2022-08-22T18:17:40.403Z,1.52
2022-08-22T18:23:04.997Z,1.52
2022-08-22T18:28:45.702Z,1.38
2022-08-22T18:33:59.795Z,1.73
2022-08-22T18:39:10.478Z,1.83
2022-08-22T18:44:38.547Z,1.98
2022-08-22T18:49:54.991Z,1.52
2022-08-22T18:55:19.431Z,1.70
2022-08-22T19:00:27.673Z,1.60
2022-08-22T19:05:46.200Z,1.90
2022-08-22T19:11:04.352Z,1.90
2022-08-22T19:16:07.622Z,1.98
2022-08-22T19:21:37.686Z,1.90
2022-08-22T19:26:44.600Z,2.03
2022-08-22T19:31:51.639Z,1.75
2022-08-22T19:37:30.523Z,2.00
2022-08-22T19:42:39.200Z,1.70
2022-08-22T19:47:53.644Z,1.80
2022-08-22T19:53:02.543Z,1.65
2022-08-22T19:58:20.950Z,1.70
2022-08-22T20:04:04.918Z,1.50
2022-08-22T20:09:46.197Z,1.75
2022-08-22T20:14:50.280Z,1.67
2022-08-22T20:25:41.512Z,1.75
2022-08-22T20:30:47.899Z,1.95
2022-08-22T20:35:59.954Z,1.73
2022-08-22T20:41:26.982Z,1.70
2022-08-22T20:46:46.603Z,1.65
2022-08-22T20:52:06.446Z,1.70
2022-08-22T20:57:16.852Z,1.67
2022-08-22T21:02:25.177Z,1.70
2022-08-22T21:07:40.785Z,1.63
2022-08-22T21:12:44.014Z,1.90
2022-08-22T21:17:47.364Z,2.00
2022-08-22T21:22:51.328Z,2.10
2022-08-22T21:27:55.877Z,1.85
2022-08-22T21:32:59.134Z,1.77
2022-08-22T21:38:03.078Z,1.80
2022-08-22T21:48:33.981Z,1.83
2022-08-22T21:53:37.000Z,1.70
2022-08-22T21:58:43.189Z,1.60
2022-08-22T22:03:46.413Z,1.50
2022-08-22T22:08:50.859Z,1.65
2022-08-22T22:13:54.211Z,1.50
2022-08-22T22:18:58.051Z,1.63
2022-08-22T22:24:01.155Z,1.60
2022-08-22T22:29:04.879Z,1.40
2022-08-22T22:34:08.131Z,1.52
2022-08-22T22:39:11.733Z,1.20
2022-08-22T22:44:14.883Z,1.50
2022-08-22T22:49:19.440Z,1.30
2022-08-22T22:54:27.209Z,1.50
2022-08-22T22:59:30.687Z,1.40
2022-08-22T23:04:37.985Z,1.48
2022-08-22T23:09:44.781Z,1.50
2022-08-22T23:14:48.458Z,1.50
2022-08-22T23:19:52.318Z,1.50
2022-08-22T23:24:55.591Z,1.50
2022-08-22T23:29:58.976Z,1.60
2022-08-22T23:35:01.959Z,1.70
2022-08-22T23:40:08.805Z,1.40
2022-08-22T23:45:12.038Z,1.35
2022-08-22T23:50:15.391Z,1.40
2022-08-22T23:55:19.335Z,1.33
